Flight Track Log - Related Links

Times and Time Zones

All times are in EDT time to prevent confusion due to time zone crossing. See the DAL1042 flight status page for this flight to view local times or setup timezone preferences in your user account.

Time Position Orientation Groundspeed Altitude Reporting Facility
EDT Latitude Longitude Course Direction KTS MPH feet Rate Location/Type
Mon 10:14:20 AM 33.7000 -117.8500 90° East 160 184 1,600  Level Southern California TRACON
Mon 10:15:20 AM 33.7667 -117.8167 23° Northeast 240 276 3,400 2,200 Climbing Southern California TRACON
Mon 10:16:00 AM 33.4667 -117.7626 90° East  Level FlightAware Approximate
Mon 10:16:20 AM 33.7833 -117.7500 73° East 282 325 6,000  Level Southern California TRACON
Mon 10:17:00 AM 33.5037 -117.6215 54° Northeast  Level FlightAware Approximate
Mon 10:18:00 AM 33.5608 -117.4824 66° East  Level FlightAware Approximate
Mon 10:18:41 AM 33.6314 -117.6356 148° Southeast 299 344 11,200  Level Los Angeles Center
Mon 10:19:00 AM 33.5833 -117.3321 90° East  Level FlightAware Approximate
Mon 10:19:43 AM 33.5800 -117.5283 120° Southeast 376 433 12,700  Level Los Angeles Center
Mon 10:20:45 AM 33.5783 -117.3903 91° East 413 475 14,800 1,984 Climbing Los Angeles Center
Mon 10:21:47 AM 33.5847 -117.2467 87° East 431 496 16,800 1,839 Climbing Los Angeles Center
Mon 10:22:49 AM 33.5917 -117.1011 87° East 438 504 18,600 1,805 Climbing Los Angeles Center
Mon 10:23:50 AM 33.5981 -116.9231 87° East 449 517 20,500 1,610 Climbing Los Angeles Center
Mon 10:24:52 AM 33.6031 -116.7831 88° East 452 520 21,900 1,355 Climbing Los Angeles Center
Mon 10:25:54 AM 33.6100 -116.6256 87° East 469 540 23,300 1,258 Climbing Los Angeles Center
Mon 10:26:56 AM 33.6172 -116.4675 87° East 473 544 24,500 1,065 Climbing Los Angeles Center
Mon 10:27:58 AM 33.6419 -116.3042 80° East 494 568 25,500 1,210 Climbing Los Angeles Center
Mon 10:29:00 AM 33.6708 -116.1044 80° East 504 580 27,000 1,171 Climbing Los Angeles Center
Mon 10:30:01 AM 33.6997 -115.9389 78° East 505 581 27,900 1,073 Climbing Los Angeles Center
Mon 10:31:03 AM 33.7278 -115.7708 79° East 511 588 29,200 1,452 Climbing Los Angeles Center
Mon 10:32:05 AM 33.7547 -115.6036 79° East 511 588 30,900 878 Climbing Los Angeles Center
Mon 10:33:06 AM 33.7758 -115.4708 79° East 507 583 31,000 49 Climbing Los Angeles Center
Mon 10:34:08 AM 33.8083 -115.2703 79° East 508 585 31,000 435 Level Los Angeles Center
Mon 10:35:10 AM 33.8411 -115.0778 78° East 515 593 31,900 1,161 Climbing Los Angeles Center
Mon 10:36:12 AM 33.8681 -114.9056 79° East 499 574 33,400 1,355 Climbing Los Angeles Center
Mon 10:37:14 AM 33.8956 -114.7419 79° East 499 574 34,700 1,220 Climbing Los Angeles Center
Mon 10:38:15 AM 33.9217 -114.5786 79° East 498 573 35,900 1,122 Climbing Los Angeles Center
Mon 10:39:17 AM 33.9444 -114.4197 80° East 487 560 37,000 532 Climbing Los Angeles Center
Mon 10:40:19 AM 33.9681 -114.2950 77° East 481 554 37,000  Level Los Angeles Center
Mon 10:41:21 AM 33.9950 -114.1000 80° East 489 563 37,000  Level Los Angeles Center
Mon 10:42:23 AM 34.0194 -113.9383 80° East 493 567 37,000  Level Los Angeles Center
Mon 10:43:24 AM 34.0436 -113.7758 80° East 492 566 37,000  Level Los Angeles Center
Mon 10:44:26 AM 34.0722 -113.5883 80° East 494 568 37,000  Level Los Angeles Center
Mon 10:45:28 AM 34.0964 -113.4247 80° East 495 570 37,000  Level Los Angeles Center
Mon 10:46:41 AM 34.1267 -113.2161 80° East 487 560 37,000  Level Albuquerque Center
Mon 10:47:43 AM 34.1500 -113.0575 80° East 484 557 37,000  Level Albuquerque Center
Mon 10:48:45 AM 34.1714 -112.9000 81° East 478 550 37,000  Level Albuquerque Center
Mon 10:49:47 AM 34.1939 -112.7408 80° East 480 552 37,000  Level Albuquerque Center
Mon 10:50:49 AM 34.2158 -112.5831 80° East 478 550 37,000  Level Albuquerque Center
Mon 10:51:51 AM 34.2375 -112.4250 81° East 477 549 37,000  Level Albuquerque Center
Mon 10:52:53 AM 34.2603 -112.2658 80° East 479 551 37,000  Level Albuquerque Center
Mon 10:53:55 AM 34.2867 -112.0742 80° East 479 551 37,000  Level Albuquerque Center
Mon 10:54:57 AM 34.3083 -111.9139 81° East 479 551 37,000  Level Albuquerque Center
Mon 10:55:59 AM 34.3297 -111.7539 81° East 477 549 37,000  Level Albuquerque Center
Mon 10:57:01 AM 34.3503 -111.5936 81° East 478 550 37,000  Level Albuquerque Center
Mon 10:58:03 AM 34.3714 -111.4353 81° East 476 548 37,000  Level Albuquerque Center
Mon 10:59:05 AM 34.3925 -111.2761 81° East 476 548 37,000  Level Albuquerque Center
Mon 11:00:07 AM 34.4125 -111.1161 81° East 480 552 37,000  Level Albuquerque Center
Mon 11:01:09 AM 34.4333 -110.9558 81° East 481 554 37,000  Level Albuquerque Center
Mon 11:02:11 AM 34.4572 -110.7636 81° East 482 555 37,000  Level Albuquerque Center
Mon 11:03:13 AM 34.4781 -110.6019 81° East 485 558 37,000  Level Albuquerque Center
Mon 11:04:15 AM 34.4964 -110.4400 82° East 485 558 37,000  Level Albuquerque Center
Mon 11:05:17 AM 34.5164 -110.2753 82° East 485 558 37,000  Level Albuquerque Center
Mon 11:06:19 AM 34.5375 -110.0958 82° East 483 556 37,000  Level Albuquerque Center
Mon 11:07:21 AM 34.5564 -109.9433 81° East 481 554 37,000  Level Albuquerque Center
Mon 11:08:23 AM 34.5764 -109.7650 82° East 479 551 37,000  Level Albuquerque Center
Mon 11:09:26 AM 34.5942 -109.6122 82° East 479 551 37,000  Level Albuquerque Center
Mon 11:10:28 AM 34.6147 -109.4342 82° East 478 550 37,000  Level Albuquerque Center
Mon 11:11:30 AM 34.6325 -109.2786 82° East 484 557 37,000  Level Albuquerque Center
Mon 11:12:32 AM 34.6519 -109.0928 83° East 495 570 37,000  Level Albuquerque Center
Mon 11:13:34 AM 34.6700 -108.9367 82° East 492 566 37,000  Level Albuquerque Center
Mon 11:14:36 AM 34.6900 -108.7547 82° East 490 564 37,000  Level Albuquerque Center
Mon 11:15:38 AM 34.7061 -108.5972 83° East 491 565 37,000  Level Albuquerque Center
Mon 11:16:40 AM 34.7219 -108.4383 83° East 493 567 37,000  Level Albuquerque Center
Mon 11:17:42 AM 34.7411 -108.2722 82° East 497 572 37,000  Level Albuquerque Center
Mon 11:18:44 AM 34.7608 -108.0681 83° East 496 571 37,000  Level Albuquerque Center
Mon 11:19:46 AM 34.7769 -107.9053 83° East 500 575 37,000  Level Albuquerque Center
Mon 11:20:48 AM 34.7933 -107.7375 83° East 500 575 37,000  Level Albuquerque Center
Mon 11:21:50 AM 34.8097 -107.5714 83° East 497 572 37,000  Level Albuquerque Center
Mon 11:22:52 AM 34.8253 -107.4058 83° East 497 572 37,000  Level Albuquerque Center
Mon 11:23:54 AM 34.8406 -107.2397 84° East 497 572 37,000  Level Albuquerque Center
Mon 11:24:56 AM 34.8597 -107.0556 83° East 499 574 37,000  Level Albuquerque Center
Mon 11:25:58 AM 34.8756 -106.8681 84° East 499 574 37,000 339 Level Albuquerque Center
Mon 11:27:00 AM 34.8900 -106.7081 84° East 498 573 37,700 774 Climbing Albuquerque Center
Mon 11:28:02 AM 34.9078 -106.5111 84° East 501 577 38,600 629 Climbing Albuquerque Center
Mon 11:29:04 AM 34.9208 -106.3425 85° East 502 578 39,000 194 Climbing Albuquerque Center
Mon 11:30:06 AM 34.9342 -106.1775 84° East 494 568 39,000  Level Albuquerque Center
Mon 11:31:08 AM 34.9486 -106.0111 84° East 496 571 39,000  Level Albuquerque Center
Mon 11:32:10 AM 34.9628 -105.8342 84° East 503 579 39,000  Level Albuquerque Center
Mon 11:33:12 AM 34.9769 -105.6639 84° East 503 579 39,000  Level Albuquerque Center
Mon 11:34:15 AM 34.9903 -105.4903 85° East 508 585 39,000  Level Albuquerque Center
Mon 11:35:17 AM 35.0067 -105.2886 84° East 509 586 39,000  Level Albuquerque Center
Mon 11:36:19 AM 35.0208 -105.1156 84° East 511 588 39,000  Level Albuquerque Center
Mon 11:37:21 AM 35.0336 -104.9436 85° East 508 585 39,000  Level Albuquerque Center
Mon 11:38:23 AM 35.0467 -104.7714 85° East 507 583 39,000  Level Albuquerque Center
Mon 11:39:25 AM 35.0592 -104.6006 85° East 504 580 39,000  Level Albuquerque Center
Mon 11:40:27 AM 35.0706 -104.4325 85° East 498 573 39,000  Level Albuquerque Center
Mon 11:41:29 AM 35.0856 -104.2603 84° East 501 577 39,000  Level Albuquerque Center
Mon 11:42:31 AM 35.0967 -104.0933 85° East 496 571 39,000  Level Albuquerque Center
Mon 11:43:33 AM 35.1075 -103.9050 86° East 495 570 39,000  Level Albuquerque Center
Mon 11:44:35 AM 35.1186 -103.7372 85° East 495 570 39,000  Level Albuquerque Center
Mon 11:45:37 AM 35.1294 -103.5700 85° East 493 567 39,000  Level Albuquerque Center
Mon 11:46:39 AM 35.1419 -103.3758 85° East 490 564 39,000  Level Albuquerque Center
Mon 11:47:41 AM 35.1519 -103.2089 86° East 489 563 39,000  Level Albuquerque Center
Mon 11:48:43 AM 35.1628 -103.0406 85° East 492 566 39,000  Level Albuquerque Center
Mon 11:49:45 AM 35.1708 -102.8650 87° East 489 563 39,000  Level Albuquerque Center
Mon 11:50:47 AM 35.1817 -102.6969 85° East 495 570 39,000  Level Albuquerque Center
Mon 11:51:49 AM 35.1903 -102.5306 86° East 493 567 39,000  Level Albuquerque Center
Mon 11:52:51 AM 35.1983 -102.3639 87° East 493 567 39,000  Level Albuquerque Center
Mon 11:53:53 AM 35.2078 -102.1947 86° East 499 574 39,000  Level Albuquerque Center
Mon 11:54:55 AM 35.2178 -101.9933 86° East 497 572 39,000  Level Albuquerque Center
Mon 11:55:57 AM 35.2286 -101.8269 85° East 501 577 39,000  Level Albuquerque Center
Mon 11:56:59 AM 35.2375 -101.6442 87° East 501 577 39,000  Level Albuquerque Center
Mon 11:58:02 AM 35.2461 -101.4753 86° East 499 574 39,000  Level Albuquerque Center
Mon 11:59:04 AM 35.2522 -101.2975 88° East 502 578 39,000  Level Albuquerque Center
Mon 12:00:07 PM 35.2594 -101.1283 87° East 501 577 39,000  Level Albuquerque Center
Mon 12:01:09 PM 35.2672 -100.9594 87° East 499 574 39,000  Level Albuquerque Center
Mon 12:02:11 PM 35.2733 -100.7897 87° East 500 575 39,000  Level Albuquerque Center
Mon 12:03:13 PM 35.2814 -100.5894 87° East 503 579 39,000  Level Albuquerque Center
Mon 12:04:15 PM 35.2889 -100.4175 87° East 505 581 39,000  Level Albuquerque Center
Mon 12:05:17 PM 35.2939 -100.2431 88° East 510 587 39,000  Level Albuquerque Center
Mon 12:06:19 PM 35.3006 -100.0692 87° East 512 589 39,000  Level Albuquerque Center
Mon 12:07:21 PM 35.3058 -99.8947 88° East 513 590 39,000  Level Albuquerque Center
Mon 12:08:23 PM 35.3117 -99.7225 88° East 509 586 39,000  Level Albuquerque Center
Mon 12:09:25 PM 35.3175 -99.5153 88° East 509 586 39,000  Level Albuquerque Center
Mon 12:10:27 PM 35.3219 -99.3442 88° East 506 582 39,000  Level Albuquerque Center
Mon 12:11:29 PM 35.3278 -99.1744 88° East 503 579 39,000  Level Albuquerque Center
Mon 12:12:31 PM 35.3311 -99.0036 89° East 504 580 39,000  Level Albuquerque Center
Mon 12:13:33 PM 35.3353 -98.8319 88° East 505 581 39,000  Level Albuquerque Center
Mon 12:14:35 PM 35.3403 -98.6611 88° East 505 581 39,000  Level Albuquerque Center
Mon 12:15:54 PM 35.3458 -98.4292 88° East 497 572 39,000  Level Fort Worth Center
Mon 12:16:54 PM 35.3469 -98.2561 89° East 497 572 39,000  Level Fort Worth Center
Mon 12:17:54 PM 35.3522 -98.0856 88° East 497 572 39,000  Level Fort Worth Center
Mon 12:18:54 PM 35.3531 -97.9100 90° East 497 572 39,000  Level Fort Worth Center
Mon 12:19:54 PM 35.3558 -97.7394 89° East 497 572 39,000  Level Fort Worth Center
Mon 12:20:54 PM 35.3561 -97.5664 90° East 497 572 39,000  Level Fort Worth Center
Mon 12:21:54 PM 35.3583 -97.3653 89° East 517 595 39,000  Level Fort Worth Center
Mon 12:22:53 PM 35.3561 -97.1894 91° East 517 595 39,000  Level Fort Worth Center
Mon 12:23:53 PM 35.3472 -97.0139 94° East 517 595 39,000  Level Fort Worth Center
Mon 12:24:54 PM 35.3444 -96.8383 91° East 517 595 39,000  Level Fort Worth Center
Mon 12:25:54 PM 35.3394 -96.6603 92° East 517 595 39,000  Level Fort Worth Center
Mon 12:26:54 PM 35.3361 -96.4872 91° East 512 589 39,000  Level Fort Worth Center
Mon 12:27:54 PM 35.3325 -96.3142 91° East 512 589 39,000  Level Fort Worth Center
Mon 12:28:54 PM 35.3269 -96.1414 92° East 512 589 39,000  Level Fort Worth Center
Mon 12:29:53 PM 35.3228 -95.9708 92° East 507 583 39,000  Level Fort Worth Center
Mon 12:30:54 PM 35.3189 -95.8031 92° East 502 578 39,000  Level Fort Worth Center
Mon 12:31:53 PM 35.3164 -95.6353 91° East 495 570 39,000  Level Fort Worth Center
Mon 12:34:19 PM 35.3003 -95.2239 93° East 501 577 39,000  Level Memphis Center
Mon 12:35:19 PM 35.2942 -95.0581 93° East 496 571 39,000  Level Memphis Center
Mon 12:36:19 PM 35.2900 -94.8900 92° East 496 571 39,000  Level Memphis Center
Mon 12:37:19 PM 35.2836 -94.7244 93° East 496 571 39,000  Level Memphis Center
Mon 12:38:19 PM 35.2789 -94.5564 92° East 491 565 39,000  Level Memphis Center
Mon 12:39:19 PM 35.2739 -94.3933 92° East 486 559 39,000  Level Memphis Center
Mon 12:40:19 PM 35.2644 -94.2300 94° East 481 554 39,000  Level Memphis Center
Mon 12:41:19 PM 35.2589 -94.0644 92° East 481 554 39,000  Level Memphis Center
Mon 12:42:19 PM 35.2533 -93.9017 92° East 481 554 39,000  Level Memphis Center
Mon 12:43:19 PM 35.2431 -93.7408 94° East 481 554 39,000  Level Memphis Center
Mon 12:44:19 PM 35.2369 -93.5781 93° East 476 548 39,000  Level Memphis Center
Mon 12:45:19 PM 35.2286 -93.4175 94° East 481 554 39,000  Level Memphis Center
Mon 12:46:19 PM 35.2236 -93.2750 92° East 473 544 39,000  Level Memphis Center
Mon 12:47:19 PM 35.2150 -93.1094 94° East 473 544 39,000  Level Memphis Center
Mon 12:48:19 PM 35.2058 -92.9442 94° East 479 551 39,000  Level Memphis Center
Mon 12:49:19 PM 35.2008 -92.7839 92° East 480 552 39,000  Level Memphis Center
Mon 12:50:20 PM 35.1856 -92.6006 96° East 485 558 39,000  Level Memphis Center
Mon 12:51:19 PM 35.1775 -92.4556 94° East 479 551 39,000  Level Memphis Center
Mon 12:52:19 PM 35.1697 -92.2953 93° East 479 551 39,000  Level Memphis Center
Mon 12:53:19 PM 35.1594 -92.1350 94° East 479 551 39,000  Level Memphis Center
Mon 12:54:19 PM 35.1514 -91.9772 94° East 479 551 39,000  Level Memphis Center
Mon 12:55:19 PM 35.1408 -91.8147 94° East 479 551 39,000  Level Memphis Center
Mon 12:56:19 PM 35.1281 -91.6544 96° East 474 545 39,000  Level Memphis Center
Mon 12:57:19 PM 35.1211 -91.4944 93° East 474 545 39,000  Level Memphis Center
Mon 12:58:19 PM 35.1142 -91.3419 93° East 462 532 39,000  Level Memphis Center
Mon 12:59:19 PM 35.1028 -91.1819 95° East 462 532 39,000  Level Memphis Center
Mon 01:00:19 PM 35.0892 -91.0067 95° East 462 532 39,000  Level Memphis Center
Mon 01:01:19 PM 35.0814 -90.8494 93° East 462 532 39,000  Level Memphis Center
Mon 01:02:19 PM 35.0694 -90.6894 95° East 462 532 39,000  Level Memphis Center
Mon 01:03:19 PM 35.0572 -90.5294 95° East 462 532 39,000  Level Memphis Center
Mon 01:04:19 PM 35.0450 -90.3722 95° East 462 532 39,000  Level Memphis Center
Mon 01:05:19 PM 35.0344 -90.2150 95° East 462 532 39,000  Level Memphis Center
Mon 01:06:19 PM 35.0258 -90.0553 94° East 462 532 39,000  Level Memphis Center
Mon 01:07:19 PM 35.0086 -89.8956 97° East 462 532 39,000  Level Memphis Center
Mon 01:08:19 PM 34.9892 -89.7461 99° East 470 541 39,000  Level Memphis Center
Mon 01:09:19 PM 34.9631 -89.5817 101° East 487 560 39,000  Level Memphis Center
Mon 01:10:19 PM 34.9328 -89.4097 102° East 480 552 39,000  Level Memphis Center
Mon 01:11:19 PM 34.9086 -89.2531 101° East 467 537 39,000  Level Memphis Center
Mon 01:12:19 PM 34.8861 -89.1014 100° East 467 537 39,000  Level Memphis Center
Mon 01:13:19 PM 34.8594 -88.9450 102° East 464 534 39,000  Level Memphis Center
Mon 01:14:19 PM 34.8367 -88.7883 100° East 464 534 39,000  Level Memphis Center
Mon 01:15:19 PM 34.8117 -88.6347 101° East 469 540 39,000  Level Memphis Center
Mon 01:16:19 PM 34.7886 -88.4858 101° East 453 521 39,000  Level Memphis Center
Mon 01:17:19 PM 34.7633 -88.3272 101° East 453 521 39,000 -200 Level Memphis Center
Mon 01:18:19 PM 34.7444 -88.2039 101° East 453 521 38,600 -800 Descending Memphis Center
Mon 01:19:19 PM 34.7142 -88.0278 102° East 478 550 37,400 -1,250 Descending Memphis Center
Mon 01:20:19 PM 34.6881 -87.8667 101° East 473 544 36,100 -1,200 Descending Memphis Center
Mon 01:21:19 PM 34.6661 -87.7133 100° East 473 544 35,000 -1,050 Descending Memphis Center
Mon 01:22:19 PM 34.6397 -87.5578 102° East 468 539 34,000 -839 Descending Memphis Center
Mon 01:23:42 PM 34.6036 -87.3372 101° East 469 540 33,000 -420 Descending Atlanta Center
Mon 01:24:42 PM 34.5722 -87.1819 104° East 474 545 33,000  Level Atlanta Center
Mon 01:25:42 PM 34.5428 -87.0219 103° East 474 545 33,000  Level Atlanta Center
Mon 01:26:42 PM 34.5092 -86.8519 103° East 474 545 33,000  Level Atlanta Center
Mon 01:27:42 PM 34.4731 -86.6969 106° East 474 545 33,000 -650 Level Atlanta Center
Mon 01:28:42 PM 34.4306 -86.5422 108° East 480 552 31,700 -1,150 Descending Atlanta Center
Mon 01:29:42 PM 34.3792 -86.3919 112° Southeast 485 558 30,700 -1,100 Descending Atlanta Center
Mon 01:30:42 PM 34.3297 -86.2422 112° Southeast 485 558 29,500 -1,100 Descending Atlanta Center
Mon 01:31:42 PM 34.2822 -86.0903 111° Southeast 480 552 28,500 -1,150 Descending Atlanta Center
Mon 01:32:42 PM 34.2386 -85.9511 111° Southeast 463 533 27,200 -1,250 Descending Atlanta Center
Mon 01:33:42 PM 34.1989 -85.8219 110° East 433 498 26,000 -1,800 Descending Atlanta Center
Mon 01:34:42 PM 34.1628 -85.7108 111° Southeast 405 466 23,600 -2,450 Descending Atlanta Center
Mon 01:35:42 PM 34.1186 -85.5794 112° Southeast 410 472 21,100 -2,400 Descending Atlanta Center
Mon 01:36:42 PM 34.0722 -85.4381 112° Southeast 417 480 18,800 -2,300 Descending Atlanta Center
Mon 01:37:42 PM 34.0297 -85.3122 112° Southeast 411 473 16,500 -1,650 Descending Atlanta Center
Mon 01:38:42 PM 33.9933 -85.1864 109° East 403 464 15,500 -1,167 Descending Atlanta Center
Mon 01:40:42 PM 33.9267 -84.9475 109° East 374 430 13,000 -833 Descending Atlanta Center
Mon 01:41:42 PM 33.8794 -84.8419 118° Southeast 363 418 13,000  Level Atlanta Center
Mon 01:42:42 PM 33.8256 -84.7439 123° Southeast 358 412 13,000 -130 Level Atlanta Center
Mon 01:43:14 PM 33.8000 -84.6833 117° Southeast 355 409 12,800 -652 Descending Atlanta TRACON
Mon 01:44:14 PM 33.7500 -84.5833 121° Southeast 327 376 12,000 -950 Descending Atlanta TRACON
Mon 01:45:14 PM 33.7333 -84.5000 104° East 300 345 10,900 -1,286 Descending Atlanta TRACON
Mon 01:46:20 PM 33.7333 -84.4000 90° East 259 298 9,300 -1,600 Descending Atlanta TRACON
Mon 01:47:14 PM 33.7333 -84.3167 90° East 248 285 7,700 -1,842 Descending Atlanta TRACON
Mon 01:48:14 PM 33.7333 -84.2500 90° East 241 277 5,800 -1,800 Descending Atlanta TRACON
Mon 01:49:14 PM 33.7000 -84.2000 129° Southeast 232 267 4,100 -1,700 Descending Atlanta TRACON

Login

Don't have an account? Register now (free) for customized features, flight alerts, and more!